createdAt,value
2023-03-23T15:59:01.249Z,98439.19
2023-03-23T16:03:07.077Z,98435.84
2023-03-23T16:07:13.870Z,98431.53
2023-03-23T16:11:19.707Z,98435.13
2023-03-23T16:15:22.867Z,98427.78
2023-03-23T16:19:25.724Z,98429.69
2023-03-23T16:23:28.515Z,98419.03
2023-03-23T16:27:32.862Z,98424.50
2023-03-23T16:31:35.755Z,98420.19
2023-03-23T16:35:38.789Z,98417.66
2023-03-23T16:39:41.491Z,98410.56
2023-03-23T16:43:45.918Z,98408.53
2023-03-23T16:47:48.702Z,98411.03
2023-03-23T16:51:52.369Z,98388.47
2023-03-23T16:55:55.300Z,98401.41
2023-03-23T17:00:02.290Z,98353.16
2023-03-23T17:04:05.456Z,98389.91
2023-03-23T17:08:08.362Z,98402.31
2023-03-23T17:12:11.547Z,98398.88
2023-03-23T17:16:15.975Z,98402.63
2023-03-23T17:20:18.964Z,98400.03
2023-03-23T17:24:21.668Z,98400.66
2023-03-23T17:28:24.661Z,98397.94
2023-03-23T17:32:29.193Z,98404.69
2023-03-23T17:36:31.978Z,98399.72
2023-03-23T17:40:34.992Z,98396.03
2023-03-23T17:44:37.788Z,98391.06
2023-03-23T17:48:42.057Z,98396.59
2023-03-23T17:52:45.094Z,98393.19
2023-03-23T17:56:47.913Z,98401.75
2023-03-23T18:00:50.854Z,98386.41
2023-03-23T18:04:58.234Z,98386.06
2023-03-23T18:09:01.302Z,98394.34
2023-03-23T18:13:04.724Z,98396.84
2023-03-23T18:17:07.638Z,98386.81
2023-03-23T18:21:12.289Z,98392.84
2023-03-23T18:25:15.409Z,98394.72
2023-03-23T18:29:18.507Z,98390.28
2023-03-23T18:33:22.754Z,98384.16
2023-03-23T18:37:27.080Z,98384.53
2023-03-23T18:41:29.967Z,98391.84
2023-03-23T18:45:34.046Z,98395.75
2023-03-23T18:49:36.769Z,98389.50
2023-03-23T18:53:41.476Z,98387.81
2023-03-23T18:57:44.582Z,98391.22
2023-03-23T19:01:50.015Z,98386.44
2023-03-23T19:05:53.202Z,98392.22
2023-03-23T19:09:57.492Z,98384.06
2023-03-23T19:14:03.099Z,98381.94
2023-03-23T19:18:07.055Z,98379.81
2023-03-23T19:22:10.027Z,98380.41
2023-03-23T19:26:21.505Z,98377.53
2023-03-23T19:30:24.199Z,98374.25
2023-03-23T19:34:28.184Z,98370.66
2023-03-23T19:38:30.938Z,98354.56
2023-03-23T19:42:35.533Z,98372.66
2023-03-23T19:46:38.545Z,98366.03
2023-03-23T19:50:41.694Z,98359.41
2023-03-23T19:54:45.352Z,98359.19
2023-03-23T19:58:51.087Z,98362.72
2023-03-23T20:02:54.202Z,98373.16
2023-03-23T20:06:59.309Z,98370.34
2023-03-23T20:11:06.342Z,98365.03
2023-03-23T20:15:11.832Z,98359.69
2023-03-23T20:19:14.607Z,98354.06
2023-03-23T20:23:17.477Z,98340.38
2023-03-23T20:27:20.508Z,98347.88
2023-03-23T20:31:26.834Z,98345.72
2023-03-23T20:35:30.490Z,98331.94
2023-03-23T20:39:34.445Z,98331.63
2023-03-23T20:43:37.259Z,98338.38
2023-03-23T20:47:42.350Z,98343.38
2023-03-23T20:51:46.580Z,98350.75
2023-03-23T20:55:49.553Z,98339.19
2023-03-23T20:59:53.350Z,98347.06
2023-03-23T21:03:58.036Z,98328.84
2023-03-23T21:08:02.041Z,98334.19
2023-03-23T21:12:06.218Z,98336.03
2023-03-23T21:16:09.047Z,98336.22
2023-03-23T21:20:13.527Z,98339.56
2023-03-23T21:24:16.528Z,98332.41
2023-03-23T21:28:19.607Z,98298.53
2023-03-23T21:32:22.335Z,98323.63
2023-03-23T21:36:27.425Z,98322.50
2023-03-23T21:40:30.548Z,98322.59
2023-03-23T21:44:34.816Z,98301.09
2023-03-23T21:48:38.624Z,98285.94
2023-03-23T21:52:43.375Z,98291.94
2023-03-23T21:56:46.133Z,98270.31
2023-03-23T22:00:50.150Z,98276.19
2023-03-23T22:04:55.961Z,98278.22
2023-03-23T22:09:00.356Z,98268.88
2023-03-23T22:13:02.996Z,98273.38
2023-03-23T22:17:05.794Z,98284.94
2023-03-23T22:21:08.832Z,98264.13
2023-03-23T22:25:13.708Z,98256.53
2023-03-23T22:29:17.164Z,98253.13
2023-03-23T22:33:19.977Z,98256.28
2023-03-23T22:37:22.674Z,98242.44
2023-03-23T22:41:29.256Z,98222.66
2023-03-23T22:45:32.743Z,98235.94
2023-03-23T22:49:35.997Z,98237.19
2023-03-23T22:53:38.791Z,98224.59
2023-03-23T22:57:42.894Z,98201.94
2023-03-23T23:01:45.619Z,98199.72
2023-03-23T23:05:51.216Z,98179.69
2023-03-23T23:09:53.909Z,98186.56
2023-03-23T23:13:58.103Z,98181.47
2023-03-23T23:18:01.072Z,98146.38
2023-03-23T23:22:17.908Z,98163.56
2023-03-23T23:26:22.428Z,98154.81
2023-03-23T23:30:26.682Z,98164.88
2023-03-23T23:34:29.647Z,98149.00
2023-03-23T23:38:32.330Z,98149.88
2023-03-23T23:42:35.012Z,98135.25
2023-03-23T23:46:39.599Z,98111.50
2023-03-23T23:50:42.401Z,98109.31
2023-03-23T23:54:47.470Z,98117.31
2023-03-23T23:58:50.204Z,98123.09
